sensor_id;sensor_type;location;lat;lon;timestamp;temperature;humidity
2190;DHT22;1101;51.056;7.262;2023-04-24T00:01:55;10.60;92.80
2190;DHT22;1101;51.056;7.262;2023-04-24T00:04:24;10.60;92.80
2190;DHT22;1101;51.056;7.262;2023-04-24T00:06:53;10.60;92.80
2190;DHT22;1101;51.056;7.262;2023-04-24T00:09:24;10.60;92.80
2190;DHT22;1101;51.056;7.262;2023-04-24T00:11:52;10.60;92.80
2190;DHT22;1101;51.056;7.262;2023-04-24T00:14:20;10.60;92.80
2190;DHT22;1101;51.056;7.262;2023-04-24T00:16:47;10.60;92.80
2190;DHT22;1101;51.056;7.262;2023-04-24T00:19:17;10.50;92.80
2190;DHT22;1101;51.056;7.262;2023-04-24T00:21:48;10.50;92.90
2190;DHT22;1101;51.056;7.262;2023-04-24T00:24:16;10.50;92.90
2190;DHT22;1101;51.056;7.262;2023-04-24T00:26:44;10.50;92.90
2190;DHT22;1101;51.056;7.262;2023-04-24T00:29:12;10.60;92.90
2190;DHT22;1101;51.056;7.262;2023-04-24T00:31:40;10.50;92.90
2190;DHT22;1101;51.056;7.262;2023-04-24T00:34:08;10.50;92.90
2190;DHT22;1101;51.056;7.262;2023-04-24T00:36:38;10.50;92.90
2190;DHT22;1101;51.056;7.262;2023-04-24T00:39:06;10.50;92.90
2190;DHT22;1101;51.056;7.262;2023-04-24T00:41:35;10.50;92.90
2190;DHT22;1101;51.056;7.262;2023-04-24T00:44:03;10.50;93.00
2190;DHT22;1101;51.056;7.262;2023-04-24T00:46:31;10.50;93.00
2190;DHT22;1101;51.056;7.262;2023-04-24T00:48:59;10.50;93.00
2190;DHT22;1101;51.056;7.262;2023-04-24T00:51:27;10.40;92.90
2190;DHT22;1101;51.056;7.262;2023-04-24T00:53:56;10.40;92.90
2190;DHT22;1101;51.056;7.262;2023-04-24T00:56:24;10.40;92.90
2190;DHT22;1101;51.056;7.262;2023-04-24T00:58:52;10.40;92.90
2190;DHT22;1101;51.056;7.262;2023-04-24T01:01:20;10.50;93.00
2190;DHT22;1101;51.056;7.262;2023-04-24T01:03:49;10.40;93.00
2190;DHT22;1101;51.056;7.262;2023-04-24T01:06:19;10.40;93.00
2190;DHT22;1101;51.056;7.262;2023-04-24T01:08:48;10.40;93.00
2190;DHT22;1101;51.056;7.262;2023-04-24T01:11:17;10.40;93.00
2190;DHT22;1101;51.056;7.262;2023-04-24T01:13:46;10.40;93.00
2190;DHT22;1101;51.056;7.262;2023-04-24T01:16:15;10.40;93.00
2190;DHT22;1101;51.056;7.262;2023-04-24T01:18:44;10.50;93.10
2190;DHT22;1101;51.056;7.262;2023-04-24T01:21:13;10.40;93.00
2190;DHT22;1101;51.056;7.262;2023-04-24T01:23:42;10.40;93.10
2190;DHT22;1101;51.056;7.262;2023-04-24T01:26:10;10.50;93.10
2190;DHT22;1101;51.056;7.262;2023-04-24T01:28:39;10.40;93.10
2190;DHT22;1101;51.056;7.262;2023-04-24T01:31:06;10.40;93.10
2190;DHT22;1101;51.056;7.262;2023-04-24T01:33:34;10.40;93.10
2190;DHT22;1101;51.056;7.262;2023-04-24T01:36:02;10.40;93.20
2190;DHT22;1101;51.056;7.262;2023-04-24T01:38:30;10.40;93.10
2190;DHT22;1101;51.056;7.262;2023-04-24T01:40:59;10.40;93.00
2190;DHT22;1101;51.056;7.262;2023-04-24T01:43:28;10.40;93.00
2190;DHT22;1101;51.056;7.262;2023-04-24T01:45:56;10.40;93.10
2190;DHT22;1101;51.056;7.262;2023-04-24T01:48:24;10.40;93.10
2190;DHT22;1101;51.056;7.262;2023-04-24T01:50:51;10.30;93.00
2190;DHT22;1101;51.056;7.262;2023-04-24T01:53:19;10.30;92.90
2190;DHT22;1101;51.056;7.262;2023-04-24T01:55:47;10.30;93.00
2190;DHT22;1101;51.056;7.262;2023-04-24T01:58:16;10.30;92.90
2190;DHT22;1101;51.056;7.262;2023-04-24T02:00:44;10.30;92.80
2190;DHT22;1101;51.056;7.262;2023-04-24T02:03:12;10.30;92.80
2190;DHT22;1101;51.056;7.262;2023-04-24T02:05:39;10.20;92.80
2190;DHT22;1101;51.056;7.262;2023-04-24T02:08:07;10.20;92.80
2190;DHT22;1101;51.056;7.262;2023-04-24T02:10:35;10.20;92.70
2190;DHT22;1101;51.056;7.262;2023-04-24T02:13:03;10.20;92.70
2190;DHT22;1101;51.056;7.262;2023-04-24T02:15:32;10.10;92.60
2190;DHT22;1101;51.056;7.262;2023-04-24T02:18:00;10.10;92.50
2190;DHT22;1101;51.056;7.262;2023-04-24T02:20:28;10.00;92.50
2190;DHT22;1101;51.056;7.262;2023-04-24T02:22:55;10.00;92.50
2190;DHT22;1101;51.056;7.262;2023-04-24T02:25:24;10.00;92.50
2190;DHT22;1101;51.056;7.262;2023-04-24T02:27:51;10.00;92.40
2190;DHT22;1101;51.056;7.262;2023-04-24T02:30:19;9.90;92.90
2190;DHT22;1101;51.056;7.262;2023-04-24T02:32:48;9.90;92.90
2190;DHT22;1101;51.056;7.262;2023-04-24T02:35:16;9.90;92.90
2190;DHT22;1101;51.056;7.262;2023-04-24T02:37:44;9.80;92.90
2190;DHT22;1101;51.056;7.262;2023-04-24T02:40:12;9.80;92.90
2190;DHT22;1101;51.056;7.262;2023-04-24T02:42:40;9.80;92.90
2190;DHT22;1101;51.056;7.262;2023-04-24T02:45:08;9.80;92.90
2190;DHT22;1101;51.056;7.262;2023-04-24T02:47:36;9.70;92.90
2190;DHT22;1101;51.056;7.262;2023-04-24T02:50:07;9.70;92.90
2190;DHT22;1101;51.056;7.262;2023-04-24T02:52:35;9.60;92.90
2190;DHT22;1101;51.056;7.262;2023-04-24T02:55:03;9.50;92.90
2190;DHT22;1101;51.056;7.262;2023-04-24T02:57:31;9.40;92.90
2190;DHT22;1101;51.056;7.262;2023-04-24T02:59:59;9.30;92.90
2190;DHT22;1101;51.056;7.262;2023-04-24T03:02:26;9.30;93.00
2190;DHT22;1101;51.056;7.262;2023-04-24T03:04:54;9.30;93.00
2190;DHT22;1101;51.056;7.262;2023-04-24T03:07:24;9.20;92.90
2190;DHT22;1101;51.056;7.262;2023-04-24T03:09:52;9.20;92.90
2190;DHT22;1101;51.056;7.262;2023-04-24T03:12:20;9.20;92.90
2190;DHT22;1101;51.056;7.262;2023-04-24T03:14:50;9.20;92.90
2190;DHT22;1101;51.056;7.262;2023-04-24T03:17:17;9.20;92.90
2190;DHT22;1101;51.056;7.262;2023-04-24T03:19:45;9.20;92.90
2190;DHT22;1101;51.056;7.262;2023-04-24T03:22:13;9.20;93.00
2190;DHT22;1101;51.056;7.262;2023-04-24T03:24:42;9.20;93.00
2190;DHT22;1101;51.056;7.262;2023-04-24T03:27:10;9.10;93.00
2190;DHT22;1101;51.056;7.262;2023-04-24T03:29:38;9.10;93.30
2190;DHT22;1101;51.056;7.262;2023-04-24T03:32:06;9.10;93.00
2190;DHT22;1101;51.056;7.262;2023-04-24T03:34:34;9.10;93.00
2190;DHT22;1101;51.056;7.262;2023-04-24T03:37:01;9.10;93.00
2190;DHT22;1101;51.056;7.262;2023-04-24T03:39:29;9.10;93.00
2190;DHT22;1101;51.056;7.262;2023-04-24T03:41:58;9.10;93.00
2190;DHT22;1101;51.056;7.262;2023-04-24T03:44:26;9.00;93.00
2190;DHT22;1101;51.056;7.262;2023-04-24T03:46:54;9.00;93.00
2190;DHT22;1101;51.056;7.262;2023-04-24T03:49:22;9.00;93.00
2190;DHT22;1101;51.056;7.262;2023-04-24T03:51:50;9.00;93.00
2190;DHT22;1101;51.056;7.262;2023-04-24T03:54:18;9.00;93.10
2190;DHT22;1101;51.056;7.262;2023-04-24T03:56:46;9.00;93.00
2190;DHT22;1101;51.056;7.262;2023-04-24T03:59:16;9.00;93.00
2190;DHT22;1101;51.056;7.262;2023-04-24T04:01:43;9.00;93.00
2190;DHT22;1101;51.056;7.262;2023-04-24T04:04:12;9.00;93.00
2190;DHT22;1101;51.056;7.262;2023-04-24T04:06:40;8.90;92.90
2190;DHT22;1101;51.056;7.262;2023-04-24T04:09:08;8.90;92.90
2190;DHT22;1101;51.056;7.262;2023-04-24T04:11:36;8.90;92.90
2190;DHT22;1101;51.056;7.262;2023-04-24T04:14:04;8.90;92.90
2190;DHT22;1101;51.056;7.262;2023-04-24T04:16:33;8.90;92.90
2190;DHT22;1101;51.056;7.262;2023-04-24T04:19:02;8.90;93.00
2190;DHT22;1101;51.056;7.262;2023-04-24T04:21:30;8.90;92.90
2190;DHT22;1101;51.056;7.262;2023-04-24T04:23:58;8.90;92.90
2190;DHT22;1101;51.056;7.262;2023-04-24T04:26:26;8.90;92.80
2190;DHT22;1101;51.056;7.262;2023-04-24T04:28:54;8.80;92.80
2190;DHT22;1101;51.056;7.262;2023-04-24T04:31:22;8.80;92.80
2190;DHT22;1101;51.056;7.262;2023-04-24T04:33:51;8.80;92.80
2190;DHT22;1101;51.056;7.262;2023-04-24T04:36:19;8.80;92.80
2190;DHT22;1101;51.056;7.262;2023-04-24T04:38:46;8.80;92.80
2190;DHT22;1101;51.056;7.262;2023-04-24T04:41:14;8.80;92.80
2190;DHT22;1101;51.056;7.262;2023-04-24T04:43:43;8.80;92.80
2190;DHT22;1101;51.056;7.262;2023-04-24T04:46:11;8.80;93.00
2190;DHT22;1101;51.056;7.262;2023-04-24T04:48:38;8.80;92.90
2190;DHT22;1101;51.056;7.262;2023-04-24T04:51:08;8.80;92.80
2190;DHT22;1101;51.056;7.262;2023-04-24T04:53:36;8.80;92.80
2190;DHT22;1101;51.056;7.262;2023-04-24T04:56:03;8.80;92.80
2190;DHT22;1101;51.056;7.262;2023-04-24T04:58:31;8.80;92.80
2190;DHT22;1101;51.056;7.262;2023-04-24T05:00:59;8.80;92.80
2190;DHT22;1101;51.056;7.262;2023-04-24T05:03:27;8.80;92.90
2190;DHT22;1101;51.056;7.262;2023-04-24T05:05:55;8.70;92.90
2190;DHT22;1101;51.056;7.262;2023-04-24T05:08:24;8.70;92.90
2190;DHT22;1101;51.056;7.262;2023-04-24T05:10:53;8.70;92.90
2190;DHT22;1101;51.056;7.262;2023-04-24T05:13:21;8.70;92.90
2190;DHT22;1101;51.056;7.262;2023-04-24T05:16:04;8.70;92.90
2190;DHT22;1101;51.056;7.262;2023-04-24T05:18:32;8.70;92.90
2190;DHT22;1101;51.056;7.262;2023-04-24T05:21:00;8.70;92.90
2190;DHT22;1101;51.056;7.262;2023-04-24T05:23:29;8.70;92.90
2190;DHT22;1101;51.056;7.262;2023-04-24T05:25:57;8.70;92.90
2190;DHT22;1101;51.056;7.262;2023-04-24T05:28:24;8.70;92.90
2190;DHT22;1101;51.056;7.262;2023-04-24T05:30:54;8.70;93.00
2190;DHT22;1101;51.056;7.262;2023-04-24T05:33:22;8.70;93.00
2190;DHT22;1101;51.056;7.262;2023-04-24T05:35:50;8.70;93.00
2190;DHT22;1101;51.056;7.262;2023-04-24T05:38:18;8.70;93.00
2190;DHT22;1101;51.056;7.262;2023-04-24T05:40:47;8.70;93.00
2190;DHT22;1101;51.056;7.262;2023-04-24T05:43:15;8.70;92.90
2190;DHT22;1101;51.056;7.262;2023-04-24T05:45:43;8.70;93.00
2190;DHT22;1101;51.056;7.262;2023-04-24T05:48:10;8.70;93.00
2190;DHT22;1101;51.056;7.262;2023-04-24T05:50:38;8.70;93.00
2190;DHT22;1101;51.056;7.262;2023-04-24T05:53:06;8.70;93.00
2190;DHT22;1101;51.056;7.262;2023-04-24T05:55:34;8.70;93.10
2190;DHT22;1101;51.056;7.262;2023-04-24T05:58:03;8.70;93.10
2190;DHT22;1101;51.056;7.262;2023-04-24T06:00:31;8.60;93.10
2190;DHT22;1101;51.056;7.262;2023-04-24T06:02:59;8.60;93.10
2190;DHT22;1101;51.056;7.262;2023-04-24T06:05:30;8.60;93.30
2190;DHT22;1101;51.056;7.262;2023-04-24T06:07:58;8.50;93.30
2190;DHT22;1101;51.056;7.262;2023-04-24T06:10:26;8.50;93.30
2190;DHT22;1101;51.056;7.262;2023-04-24T06:12:54;8.40;93.30
2190;DHT22;1101;51.056;7.262;2023-04-24T06:15:29;8.40;93.40
2190;DHT22;1101;51.056;7.262;2023-04-24T06:17:58;8.40;93.50
2190;DHT22;1101;51.056;7.262;2023-04-24T06:20:26;8.30;93.50
2190;DHT22;1101;51.056;7.262;2023-04-24T06:22:54;8.30;93.50
2190;DHT22;1101;51.056;7.262;2023-04-24T06:25:24;8.30;93.90
2190;DHT22;1101;51.056;7.262;2023-04-24T06:27:51;8.20;93.60
2190;DHT22;1101;51.056;7.262;2023-04-24T06:30:19;8.20;93.60
2190;DHT22;1101;51.056;7.262;2023-04-24T06:32:48;8.20;93.70
2190;DHT22;1101;51.056;7.262;2023-04-24T06:35:16;8.20;93.70
2190;DHT22;1101;51.056;7.262;2023-04-24T06:37:44;8.20;93.70
2190;DHT22;1101;51.056;7.262;2023-04-24T06:40:12;8.10;93.80
2190;DHT22;1101;51.056;7.262;2023-04-24T06:42:39;8.10;93.80
2190;DHT22;1101;51.056;7.262;2023-04-24T06:45:08;8.10;93.90
2190;DHT22;1101;51.056;7.262;2023-04-24T06:47:36;8.10;93.90
2190;DHT22;1101;51.056;7.262;2023-04-24T06:50:06;8.10;93.90
2190;DHT22;1101;51.056;7.262;2023-04-24T06:52:34;8.20;94.30
2190;DHT22;1101;51.056;7.262;2023-04-24T06:55:02;8.20;94.00
2190;DHT22;1101;51.056;7.262;2023-04-24T06:57:30;8.10;94.00
2190;DHT22;1101;51.056;7.262;2023-04-24T06:59:58;8.10;94.00
2190;DHT22;1101;51.056;7.262;2023-04-24T07:02:26;8.10;94.10
2190;DHT22;1101;51.056;7.262;2023-04-24T07:04:54;8.10;94.10
2190;DHT22;1101;51.056;7.262;2023-04-24T07:07:23;8.10;94.10
2190;DHT22;1101;51.056;7.262;2023-04-24T07:09:51;8.10;94.20
2190;DHT22;1101;51.056;7.262;2023-04-24T07:12:19;8.00;94.50
2190;DHT22;1101;51.056;7.262;2023-04-24T07:14:48;8.00;94.40
2190;DHT22;1101;51.056;7.262;2023-04-24T07:17:16;8.00;94.40
2190;DHT22;1101;51.056;7.262;2023-04-24T07:19:43;8.00;94.30
2190;DHT22;1101;51.056;7.262;2023-04-24T07:22:11;7.90;94.30
2190;DHT22;1101;51.056;7.262;2023-04-24T07:24:44;7.90;94.50
2190;DHT22;1101;51.056;7.262;2023-04-24T07:27:12;7.90;94.40
2190;DHT22;1101;51.056;7.262;2023-04-24T07:29:41;7.90;94.40
2190;DHT22;1101;51.056;7.262;2023-04-24T07:32:10;7.90;94.50
2190;DHT22;1101;51.056;7.262;2023-04-24T07:34:37;7.90;94.50
2190;DHT22;1101;51.056;7.262;2023-04-24T07:37:05;7.90;94.60
2190;DHT22;1101;51.056;7.262;2023-04-24T07:39:33;7.90;94.60
2190;DHT22;1101;51.056;7.262;2023-04-24T07:42:02;7.90;94.60
2190;DHT22;1101;51.056;7.262;2023-04-24T07:44:30;7.90;94.90
2190;DHT22;1101;51.056;7.262;2023-04-24T07:46:58;7.90;94.70
2190;DHT22;1101;51.056;7.262;2023-04-24T07:49:26;7.90;94.70
2190;DHT22;1101;51.056;7.262;2023-04-24T07:51:54;7.80;94.70
2190;DHT22;1101;51.056;7.262;2023-04-24T07:54:22;7.80;94.80
2190;DHT22;1101;51.056;7.262;2023-04-24T07:56:49;7.80;94.70
2190;DHT22;1101;51.056;7.262;2023-04-24T07:59:18;7.80;94.80
2190;DHT22;1101;51.056;7.262;2023-04-24T08:01:46;7.80;95.10
2190;DHT22;1101;51.056;7.262;2023-04-24T08:04:14;7.80;95.00
2190;DHT22;1101;51.056;7.262;2023-04-24T08:06:42;7.80;95.10
2190;DHT22;1101;51.056;7.262;2023-04-24T08:09:10;7.80;95.10
2190;DHT22;1101;51.056;7.262;2023-04-24T08:11:38;7.70;95.10
2190;DHT22;1101;51.056;7.262;2023-04-24T08:14:06;7.70;95.30
2190;DHT22;1101;51.056;7.262;2023-04-24T08:16:35;7.60;94.90
2190;DHT22;1101;51.056;7.262;2023-04-24T08:19:03;7.60;95.00
2190;DHT22;1101;51.056;7.262;2023-04-24T08:21:31;7.60;94.90
2190;DHT22;1101;51.056;7.262;2023-04-24T08:23:59;7.50;95.00
2190;DHT22;1101;51.056;7.262;2023-04-24T08:26:27;7.50;95.10
2190;DHT22;1101;51.056;7.262;2023-04-24T08:28:54;7.40;95.00
2190;DHT22;1101;51.056;7.262;2023-04-24T08:31:22;7.40;95.10
2190;DHT22;1101;51.056;7.262;2023-04-24T08:33:52;7.40;95.10
2190;DHT22;1101;51.056;7.262;2023-04-24T08:36:20;7.40;95.10
2190;DHT22;1101;51.056;7.262;2023-04-24T08:38:56;7.40;95.20
2190;DHT22;1101;51.056;7.262;2023-04-24T08:41:24;7.30;95.10
2190;DHT22;1101;51.056;7.262;2023-04-24T08:43:52;7.40;95.10
2190;DHT22;1101;51.056;7.262;2023-04-24T08:46:21;7.30;95.20
2190;DHT22;1101;51.056;7.262;2023-04-24T08:48:50;7.30;95.30
2190;DHT22;1101;51.056;7.262;2023-04-24T08:51:21;7.30;95.20
2190;DHT22;1101;51.056;7.262;2023-04-24T08:53:51;7.20;95.20
2190;DHT22;1101;51.056;7.262;2023-04-24T08:56:21;7.20;95.20
2190;DHT22;1101;51.056;7.262;2023-04-24T08:58:51;7.20;95.20
2190;DHT22;1101;51.056;7.262;2023-04-24T09:01:19;7.20;95.30
2190;DHT22;1101;51.056;7.262;2023-04-24T09:03:48;7.10;95.20
2190;DHT22;1101;51.056;7.262;2023-04-24T09:06:17;7.10;95.30
2190;DHT22;1101;51.056;7.262;2023-04-24T09:08:50;7.10;95.40
2190;DHT22;1101;51.056;7.262;2023-04-24T09:11:21;7.10;95.40
2190;DHT22;1101;51.056;7.262;2023-04-24T09:13:51;7.10;95.50
2190;DHT22;1101;51.056;7.262;2023-04-24T09:16:20;7.00;95.50
2190;DHT22;1101;51.056;7.262;2023-04-24T09:18:49;7.00;95.50
2190;DHT22;1101;51.056;7.262;2023-04-24T09:21:17;7.00;95.70
2190;DHT22;1101;51.056;7.262;2023-04-24T09:23:57;7.00;96.00
2190;DHT22;1101;51.056;7.262;2023-04-24T09:26:25;7.00;96.00
2190;DHT22;1101;51.056;7.262;2023-04-24T09:28:53;7.00;96.10
2190;DHT22;1101;51.056;7.262;2023-04-24T09:31:21;7.00;96.20
2190;DHT22;1101;51.056;7.262;2023-04-24T09:33:54;7.00;96.00
2190;DHT22;1101;51.056;7.262;2023-04-24T09:36:28;7.00;96.00
2190;DHT22;1101;51.056;7.262;2023-04-24T09:38:59;7.00;96.10
2190;DHT22;1101;51.056;7.262;2023-04-24T09:41:28;7.10;96.60
2190;DHT22;1101;51.056;7.262;2023-04-24T09:43:56;7.10;96.10
2190;DHT22;1101;51.056;7.262;2023-04-24T09:46:31;7.10;96.30
2190;DHT22;1101;51.056;7.262;2023-04-24T09:49:07;7.20;96.30
2190;DHT22;1101;51.056;7.262;2023-04-24T09:51:36;7.20;96.40
2190;DHT22;1101;51.056;7.262;2023-04-24T09:54:14;7.20;96.40
2190;DHT22;1101;51.056;7.262;2023-04-24T09:56:43;7.20;96.20
2190;DHT22;1101;51.056;7.262;2023-04-24T09:59:12;7.20;96.30
2190;DHT22;1101;51.056;7.262;2023-04-24T10:01:39;7.20;96.40
2190;DHT22;1101;51.056;7.262;2023-04-24T10:04:17;7.20;96.40
2190;DHT22;1101;51.056;7.262;2023-04-24T10:06:47;7.20;96.40
2190;DHT22;1101;51.056;7.262;2023-04-24T10:09:18;7.20;96.50
2190;DHT22;1101;51.056;7.262;2023-04-24T10:11:48;7.20;96.50
2190;DHT22;1101;51.056;7.262;2023-04-24T10:14:17;7.20;96.30
2190;DHT22;1101;51.056;7.262;2023-04-24T10:16:46;7.20;96.70
2190;DHT22;1101;51.056;7.262;2023-04-24T10:19:14;7.20;96.50
2190;DHT22;1101;51.056;7.262;2023-04-24T10:21:43;7.30;96.50
2190;DHT22;1101;51.056;7.262;2023-04-24T10:24:13;7.30;96.60
2190;DHT22;1101;51.056;7.262;2023-04-24T10:26:43;7.30;96.50
2190;DHT22;1101;51.056;7.262;2023-04-24T10:29:12;7.40;96.60
2190;DHT22;1101;51.056;7.262;2023-04-24T10:31:42;7.40;96.60
2190;DHT22;1101;51.056;7.262;2023-04-24T10:34:13;7.40;96.90
2190;DHT22;1101;51.056;7.262;2023-04-24T10:36:46;7.50;96.90
2190;DHT22;1101;51.056;7.262;2023-04-24T10:39:15;7.50;96.80
2190;DHT22;1101;51.056;7.262;2023-04-24T10:41:45;7.50;96.70
2190;DHT22;1101;51.056;7.262;2023-04-24T10:44:14;7.50;96.70
2190;DHT22;1101;51.056;7.262;2023-04-24T10:46:44;7.60;96.70
2190;DHT22;1101;51.056;7.262;2023-04-24T10:49:12;7.60;96.80
2190;DHT22;1101;51.056;7.262;2023-04-24T10:51:47;7.70;97.30
2190;DHT22;1101;51.056;7.262;2023-04-24T10:54:26;7.70;97.00
2190;DHT22;1101;51.056;7.262;2023-04-24T10:57:28;7.70;97.30
2190;DHT22;1101;51.056;7.262;2023-04-24T11:00:19;7.80;96.90
2190;DHT22;1101;51.056;7.262;2023-04-24T11:02:48;7.90;96.70
2190;DHT22;1101;51.056;7.262;2023-04-24T11:05:18;7.90;96.70
2190;DHT22;1101;51.056;7.262;2023-04-24T11:08:10;8.00;97.00
2190;DHT22;1101;51.056;7.262;2023-04-24T11:10:39;8.00;96.80
2190;DHT22;1101;51.056;7.262;2023-04-24T11:13:08;8.10;97.10
2190;DHT22;1101;51.056;7.262;2023-04-24T11:15:41;8.10;97.00
2190;DHT22;1101;51.056;7.262;2023-04-24T11:18:13;8.10;96.80
2190;DHT22;1101;51.056;7.262;2023-04-24T11:20:42;8.10;97.00
2190;DHT22;1101;51.056;7.262;2023-04-24T11:23:12;8.10;97.30
2190;DHT22;1101;51.056;7.262;2023-04-24T11:25:41;8.20;97.10
2190;DHT22;1101;51.056;7.262;2023-04-24T11:28:14;8.30;96.90
2190;DHT22;1101;51.056;7.262;2023-04-24T11:30:43;8.30;97.00
2190;DHT22;1101;51.056;7.262;2023-04-24T11:33:20;8.40;97.00
2190;DHT22;1101;51.056;7.262;2023-04-24T11:35:51;8.40;96.90
2190;DHT22;1101;51.056;7.262;2023-04-24T11:38:18;8.40;97.10
2190;DHT22;1101;51.056;7.262;2023-04-24T11:40:51;8.40;97.40
2190;DHT22;1101;51.056;7.262;2023-04-24T11:43:20;8.40;97.20
2190;DHT22;1101;51.056;7.262;2023-04-24T11:45:48;8.40;97.00
2190;DHT22;1101;51.056;7.262;2023-04-24T11:48:20;8.50;97.00
2190;DHT22;1101;51.056;7.262;2023-04-24T11:50:50;8.60;97.00
2190;DHT22;1101;51.056;7.262;2023-04-24T11:53:19;8.70;97.00
2190;DHT22;1101;51.056;7.262;2023-04-24T11:55:47;8.80;97.00
2190;DHT22;1101;51.056;7.262;2023-04-24T11:58:15;8.90;97.10
2190;DHT22;1101;51.056;7.262;2023-04-24T12:00:56;9.10;97.00
2190;DHT22;1101;51.056;7.262;2023-04-24T12:03:25;9.20;97.10
2190;DHT22;1101;51.056;7.262;2023-04-24T12:06:05;9.40;97.00
2190;DHT22;1101;51.056;7.262;2023-04-24T12:08:34;9.50;97.00
2190;DHT22;1101;51.056;7.262;2023-04-24T12:11:06;9.50;97.00
2190;DHT22;1101;51.056;7.262;2023-04-24T12:13:35;9.60;96.90
2190;DHT22;1101;51.056;7.262;2023-04-24T12:16:04;9.70;96.90
2190;DHT22;1101;51.056;7.262;2023-04-24T12:18:33;9.80;96.90
2190;DHT22;1101;51.056;7.262;2023-04-24T12:21:18;9.90;97.00
2190;DHT22;1101;51.056;7.262;2023-04-24T12:23:49;9.90;96.80
2190;DHT22;1101;51.056;7.262;2023-04-24T12:26:18;9.90;96.80
2190;DHT22;1101;51.056;7.262;2023-04-24T12:28:48;9.80;96.80
2190;DHT22;1101;51.056;7.262;2023-04-24T12:31:16;9.80;96.80
2190;DHT22;1101;51.056;7.262;2023-04-24T12:33:46;9.70;96.80
2190;DHT22;1101;51.056;7.262;2023-04-24T12:36:13;9.60;96.80
2190;DHT22;1101;51.056;7.262;2023-04-24T12:38:43;9.50;96.80
2190;DHT22;1101;51.056;7.262;2023-04-24T12:41:13;9.50;96.90
2190;DHT22;1101;51.056;7.262;2023-04-24T12:43:51;9.50;97.10
2190;DHT22;1101;51.056;7.262;2023-04-24T12:46:19;9.40;97.00
2190;DHT22;1101;51.056;7.262;2023-04-24T12:48:50;9.40;97.00
2190;DHT22;1101;51.056;7.262;2023-04-24T12:51:18;9.50;97.00
2190;DHT22;1101;51.056;7.262;2023-04-24T12:53:46;9.50;96.90
2190;DHT22;1101;51.056;7.262;2023-04-24T12:56:13;9.50;96.90
2190;DHT22;1101;51.056;7.262;2023-04-24T12:58:41;9.60;96.80
2190;DHT22;1101;51.056;7.262;2023-04-24T13:01:09;9.70;96.70
2190;DHT22;1101;51.056;7.262;2023-04-24T13:03:37;9.70;96.70
2190;DHT22;1101;51.056;7.262;2023-04-24T13:06:07;9.80;96.70
2190;DHT22;1101;51.056;7.262;2023-04-24T13:08:36;9.80;96.70
2190;DHT22;1101;51.056;7.262;2023-04-24T13:11:04;9.90;96.60
2190;DHT22;1101;51.056;7.262;2023-04-24T13:13:32;10.00;96.10
2190;DHT22;1101;51.056;7.262;2023-04-24T13:16:00;10.00;96.00
2190;DHT22;1101;51.056;7.262;2023-04-24T13:18:28;10.00;96.00
2190;DHT22;1101;51.056;7.262;2023-04-24T13:20:55;10.00;96.00
2190;DHT22;1101;51.056;7.262;2023-04-24T13:23:25;10.10;95.90
2190;DHT22;1101;51.056;7.262;2023-04-24T13:25:52;10.20;95.90
2190;DHT22;1101;51.056;7.262;2023-04-24T13:28:24;10.30;95.90
2190;DHT22;1101;51.056;7.262;2023-04-24T13:30:52;10.30;95.90
2190;DHT22;1101;51.056;7.262;2023-04-24T13:33:19;10.40;95.80
2190;DHT22;1101;51.056;7.262;2023-04-24T13:35:47;10.40;95.70
2190;DHT22;1101;51.056;7.262;2023-04-24T13:38:15;10.40;95.70
2190;DHT22;1101;51.056;7.262;2023-04-24T13:40:44;10.50;95.70
2190;DHT22;1101;51.056;7.262;2023-04-24T13:43:12;10.50;95.70
2190;DHT22;1101;51.056;7.262;2023-04-24T13:45:40;10.50;95.60
2190;DHT22;1101;51.056;7.262;2023-04-24T13:48:08;10.50;95.60
2190;DHT22;1101;51.056;7.262;2023-04-24T13:50:36;10.50;95.50
2190;DHT22;1101;51.056;7.262;2023-04-24T13:53:04;10.50;95.40
2190;DHT22;1101;51.056;7.262;2023-04-24T13:55:32;10.50;95.40
2190;DHT22;1101;51.056;7.262;2023-04-24T13:58:01;10.50;95.50
2190;DHT22;1101;51.056;7.262;2023-04-24T14:00:30;10.60;95.60
2190;DHT22;1101;51.056;7.262;2023-04-24T14:02:58;10.60;95.20
2190;DHT22;1101;51.056;7.262;2023-04-24T14:05:27;10.60;95.10
2190;DHT22;1101;51.056;7.262;2023-04-24T14:07:55;10.60;95.10
2190;DHT22;1101;51.056;7.262;2023-04-24T14:10:23;10.50;95.10
2190;DHT22;1101;51.056;7.262;2023-04-24T14:12:52;10.50;95.10
2190;DHT22;1101;51.056;7.262;2023-04-24T14:15:21;10.50;95.00
2190;DHT22;1101;51.056;7.262;2023-04-24T14:17:49;10.50;94.60
2190;DHT22;1101;51.056;7.262;2023-04-24T14:20:17;10.40;94.70
2190;DHT22;1101;51.056;7.262;2023-04-24T14:22:45;10.40;94.80
2190;DHT22;1101;51.056;7.262;2023-04-24T14:25:13;10.30;94.80
2190;DHT22;1101;51.056;7.262;2023-04-24T14:27:42;10.30;94.50
2190;DHT22;1101;51.056;7.262;2023-04-24T14:30:10;10.20;94.50
2190;DHT22;1101;51.056;7.262;2023-04-24T14:32:40;10.20;94.50
2190;DHT22;1101;51.056;7.262;2023-04-24T14:35:08;10.30;94.50
2190;DHT22;1101;51.056;7.262;2023-04-24T14:37:36;10.30;94.40
2190;DHT22;1101;51.056;7.262;2023-04-24T14:40:08;10.30;94.50
2190;DHT22;1101;51.056;7.262;2023-04-24T14:42:56;10.40;94.70
2190;DHT22;1101;51.056;7.262;2023-04-24T14:45:24;10.50;94.60
2190;DHT22;1101;51.056;7.262;2023-04-24T14:47:54;10.50;94.50
2190;DHT22;1101;51.056;7.262;2023-04-24T14:50:23;10.50;94.30
2190;DHT22;1101;51.056;7.262;2023-04-24T14:52:54;10.50;94.10
2190;DHT22;1101;51.056;7.262;2023-04-24T14:55:23;10.50;93.80
2190;DHT22;1101;51.056;7.262;2023-04-24T14:57:52;10.50;93.80
2190;DHT22;1101;51.056;7.262;2023-04-24T15:00:20;10.50;94.20
2190;DHT22;1101;51.056;7.262;2023-04-24T15:02:49;10.50;94.20
2190;DHT22;1101;51.056;7.262;2023-04-24T15:05:19;10.50;94.20
2190;DHT22;1101;51.056;7.262;2023-04-24T15:07:48;10.40;94.20
2190;DHT22;1101;51.056;7.262;2023-04-24T15:10:16;10.40;94.20
2190;DHT22;1101;51.056;7.262;2023-04-24T15:12:44;10.40;94.20
2190;DHT22;1101;51.056;7.262;2023-04-24T15:15:12;10.40;94.30
2190;DHT22;1101;51.056;7.262;2023-04-24T15:17:40;10.50;94.30
2190;DHT22;1101;51.056;7.262;2023-04-24T15:20:08;10.60;94.40
2190;DHT22;1101;51.056;7.262;2023-04-24T15:22:38;10.80;94.20
2190;DHT22;1101;51.056;7.262;2023-04-24T15:25:06;10.90;94.00
2190;DHT22;1101;51.056;7.262;2023-04-24T15:27:41;10.90;94.00
2190;DHT22;1101;51.056;7.262;2023-04-24T15:30:10;11.00;93.90
2190;DHT22;1101;51.056;7.262;2023-04-24T15:32:38;11.00;93.70
2190;DHT22;1101;51.056;7.262;2023-04-24T15:35:07;11.10;93.80
2190;DHT22;1101;51.056;7.262;2023-04-24T15:37:37;11.10;93.70
2190;DHT22;1101;51.056;7.262;2023-04-24T15:40:06;11.20;93.70
2190;DHT22;1101;51.056;7.262;2023-04-24T15:42:35;11.20;93.80
2190;DHT22;1101;51.056;7.262;2023-04-24T15:45:03;11.30;93.70
2190;DHT22;1101;51.056;7.262;2023-04-24T15:47:32;11.40;93.60
2190;DHT22;1101;51.056;7.262;2023-04-24T15:50:00;11.30;92.90
2190;DHT22;1101;51.056;7.262;2023-04-24T15:52:28;11.30;93.30
2190;DHT22;1101;51.056;7.262;2023-04-24T15:54:57;11.40;93.40
2190;DHT22;1101;51.056;7.262;2023-04-24T15:57:25;11.40;93.30
2190;DHT22;1101;51.056;7.262;2023-04-24T15:59:52;11.40;93.00
2190;DHT22;1101;51.056;7.262;2023-04-24T16:02:21;11.40;93.00
2190;DHT22;1101;51.056;7.262;2023-04-24T16:04:50;11.30;92.90
2190;DHT22;1101;51.056;7.262;2023-04-24T16:07:18;11.30;92.60
2190;DHT22;1101;51.056;7.262;2023-04-24T16:09:46;11.30;92.60
2190;DHT22;1101;51.056;7.262;2023-04-24T16:12:15;11.20;92.60
2190;DHT22;1101;51.056;7.262;2023-04-24T16:14:43;11.20;92.50
2190;DHT22;1101;51.056;7.262;2023-04-24T16:17:11;11.10;92.70
2190;DHT22;1101;51.056;7.262;2023-04-24T16:19:39;11.20;92.90
2190;DHT22;1101;51.056;7.262;2023-04-24T16:22:07;11.20;92.90
2190;DHT22;1101;51.056;7.262;2023-04-24T16:24:35;11.20;92.90